createdAt,value
2022-12-05T00:01:35.509Z,5.73
2022-12-05T00:04:05.392Z,5.37
2022-12-05T00:06:33.862Z,5.00
2022-12-05T00:09:03.149Z,5.70
2022-12-05T00:11:32.692Z,4.57
2022-12-05T00:14:01.294Z,5.60
2022-12-05T00:16:30.338Z,6.30
2022-12-05T00:18:59.875Z,5.93
2022-12-05T00:21:31.738Z,6.43
2022-12-05T00:23:59.625Z,6.40
2022-12-05T00:26:26.879Z,6.27
2022-12-05T00:28:54.954Z,6.00
2022-12-05T00:31:24.959Z,6.63
2022-12-05T00:33:52.429Z,5.70
2022-12-05T00:36:27.384Z,6.33
2022-12-05T00:38:55.289Z,6.60
2022-12-05T00:41:25.074Z,7.57
2022-12-05T00:43:52.511Z,8.63
2022-12-05T00:46:22.152Z,8.63
2022-12-05T00:48:49.260Z,9.27
2022-12-05T00:51:19.414Z,9.33
2022-12-05T00:53:48.075Z,9.10
2022-12-05T00:56:18.054Z,8.47
2022-12-05T00:58:44.827Z,8.87
2022-12-05T01:01:13.347Z,9.33
2022-12-05T01:03:40.568Z,9.30
2022-12-05T01:06:08.273Z,9.63
2022-12-05T01:08:36.162Z,9.77
2022-12-05T01:11:04.585Z,9.03
2022-12-05T01:13:31.717Z,9.93
2022-12-05T01:15:58.947Z,8.87
2022-12-05T01:18:26.587Z,10.13
2022-12-05T01:20:53.931Z,9.63
2022-12-05T01:23:22.471Z,9.77
2022-12-05T01:25:51.280Z,10.27
2022-12-05T01:28:18.217Z,9.30
2022-12-05T01:30:47.691Z,9.80
2022-12-05T01:33:15.087Z,9.53
2022-12-05T01:35:42.593Z,10.10
2022-12-05T01:38:12.173Z,10.70
2022-12-05T01:40:39.633Z,10.97
2022-12-05T01:43:14.923Z,10.57
2022-12-05T01:45:44.198Z,11.33
2022-12-05T01:48:19.286Z,11.13
2022-12-05T01:50:48.660Z,11.47
2022-12-05T01:53:16.814Z,10.93
2022-12-05T01:55:45.458Z,11.00
2022-12-05T01:58:12.228Z,10.80
2022-12-05T02:00:42.262Z,11.93
2022-12-05T02:03:14.144Z,11.47
2022-12-05T02:05:41.761Z,11.53
2022-12-05T02:08:11.215Z,11.30
2022-12-05T02:10:45.626Z,10.83
2022-12-05T02:13:30.315Z,11.47
2022-12-05T02:16:24.319Z,11.20
2022-12-05T02:19:23.173Z,11.60
2022-12-05T02:22:11.003Z,12.27
2022-12-05T02:24:56.201Z,12.27
2022-12-05T02:27:34.257Z,11.93
2022-12-05T02:30:07.074Z,12.27
2022-12-05T02:33:00.289Z,12.37
2022-12-05T02:35:42.387Z,12.57
2022-12-05T02:38:21.740Z,12.23
2022-12-05T02:41:04.635Z,11.60
2022-12-05T02:43:34.795Z,12.87
2022-12-05T02:46:17.465Z,12.23
2022-12-05T02:48:46.704Z,11.63
2022-12-05T02:51:17.742Z,12.23
2022-12-05T02:53:45.541Z,12.20
2022-12-05T02:56:12.789Z,11.90
2022-12-05T02:58:47.206Z,11.63
2022-12-05T03:01:15.403Z,12.67
2022-12-05T03:03:42.334Z,12.37
2022-12-05T03:06:17.009Z,11.87
2022-12-05T03:09:01.356Z,11.30
2022-12-05T03:11:39.700Z,10.77
2022-12-05T03:14:12.068Z,10.70
2022-12-05T03:16:43.773Z,11.27
2022-12-05T03:19:15.997Z,10.57
2022-12-05T03:21:53.538Z,10.63
2022-12-05T03:24:20.610Z,9.93
2022-12-05T03:27:02.193Z,10.03
2022-12-05T03:29:48.247Z,10.90
2022-12-05T03:32:21.021Z,8.77
2022-12-05T03:35:08.481Z,9.07
2022-12-05T03:37:58.642Z,8.80
2022-12-05T03:40:47.094Z,8.77
2022-12-05T03:43:23.687Z,8.77
2022-12-05T03:45:58.149Z,8.40
2022-12-05T03:48:56.009Z,8.33
2022-12-05T03:51:28.322Z,7.63
2022-12-05T03:54:07.075Z,8.13
2022-12-05T03:56:46.198Z,7.67
2022-12-05T03:59:32.712Z,8.73
2022-12-05T04:02:09.103Z,9.03
2022-12-05T04:04:39.848Z,7.93
2022-12-05T04:07:08.698Z,7.77
2022-12-05T04:10:08.761Z,8.67
2022-12-05T04:12:36.933Z,8.77
2022-12-05T04:15:11.339Z,8.63
2022-12-05T04:17:54.001Z,9.07
2022-12-05T04:20:45.496Z,7.80
2022-12-05T04:23:12.472Z,8.13
2022-12-05T04:26:13.550Z,7.73
2022-12-05T04:28:48.333Z,8.87
2022-12-05T04:31:24.647Z,7.83
2022-12-05T04:34:07.747Z,7.00
2022-12-05T04:36:45.062Z,7.57
2022-12-05T04:39:23.714Z,7.00
2022-12-05T04:42:01.924Z,7.60
2022-12-05T04:44:47.171Z,8.40
2022-12-05T04:47:17.313Z,7.80
2022-12-05T04:49:50.585Z,8.27
2022-12-05T04:52:21.641Z,7.30
2022-12-05T04:55:28.146Z,8.67
2022-12-05T04:58:14.837Z,8.30
2022-12-05T05:01:05.057Z,7.90
2022-12-05T05:03:45.600Z,7.13
2022-12-05T05:06:13.338Z,8.20
2022-12-05T05:08:52.401Z,7.63
2022-12-05T05:11:21.618Z,7.43
2022-12-05T05:13:48.911Z,7.10
2022-12-05T05:16:18.539Z,7.50
2022-12-05T05:18:49.860Z,9.33
2022-12-05T05:21:25.605Z,7.33
2022-12-05T05:23:53.170Z,7.80
2022-12-05T05:26:20.641Z,8.20
2022-12-05T05:28:47.773Z,7.53
2022-12-05T05:31:15.082Z,7.27
2022-12-05T05:33:42.144Z,7.07
2022-12-05T05:36:12.515Z,7.43
2022-12-05T05:38:41.882Z,7.17
2022-12-05T05:41:17.353Z,7.67
2022-12-05T05:43:44.265Z,7.37
2022-12-05T05:46:12.300Z,7.27
2022-12-05T05:48:39.160Z,6.50
2022-12-05T05:51:07.968Z,7.10
2022-12-05T05:53:34.818Z,7.03
2022-12-05T05:56:07.735Z,7.73
2022-12-05T05:58:34.891Z,7.97
2022-12-05T06:01:32.065Z,7.20
2022-12-05T06:03:59.536Z,6.57
2022-12-05T06:06:26.554Z,7.10
2022-12-05T06:08:54.718Z,7.10
2022-12-05T06:11:26.362Z,6.90
2022-12-05T06:13:55.253Z,7.17
2022-12-05T06:16:22.425Z,6.80
2022-12-05T06:18:50.132Z,6.77
2022-12-05T06:21:17.423Z,6.20
2022-12-05T06:23:44.346Z,8.50
2022-12-05T06:26:13.569Z,7.63
2022-12-05T06:28:40.501Z,7.20
2022-12-05T06:31:13.256Z,7.67
2022-12-05T06:33:42.501Z,7.47
2022-12-05T06:36:12.344Z,7.40
2022-12-05T06:38:42.285Z,6.63
2022-12-05T06:41:16.227Z,7.27
2022-12-05T06:43:43.517Z,6.63
2022-12-05T06:46:13.357Z,7.37
2022-12-05T06:48:40.393Z,7.27
2022-12-05T06:51:11.123Z,7.10
2022-12-05T06:53:38.352Z,7.73
2022-12-05T06:56:08.194Z,6.67
2022-12-05T06:58:35.076Z,7.43
2022-12-05T07:01:20.640Z,7.30
2022-12-05T07:03:51.075Z,6.97
2022-12-05T07:06:17.927Z,7.53
2022-12-05T07:08:45.065Z,6.73
2022-12-05T07:11:12.173Z,7.23
2022-12-05T07:13:39.086Z,7.33
2022-12-05T07:16:07.525Z,6.47
2022-12-05T07:18:36.000Z,7.60
2022-12-05T07:21:14.365Z,7.53
2022-12-05T07:23:43.363Z,6.90
2022-12-05T07:26:13.363Z,7.13
2022-12-05T07:28:40.243Z,8.00
2022-12-05T07:31:10.445Z,8.63
2022-12-05T07:33:38.008Z,7.23
2022-12-05T07:36:11.410Z,8.37
2022-12-05T07:38:39.780Z,7.70
2022-12-05T07:41:13.066Z,8.33
2022-12-05T07:43:40.867Z,8.13
2022-12-05T07:46:11.365Z,8.00
2022-12-05T07:48:39.364Z,9.57
2022-12-05T07:51:08.294Z,7.77
2022-12-05T07:53:36.632Z,9.23
2022-12-05T07:56:07.254Z,8.07
2022-12-05T07:58:36.073Z,11.03
2022-12-05T08:01:26.923Z,9.73
2022-12-05T08:03:56.003Z,8.37
2022-12-05T08:06:25.967Z,9.20
2022-12-05T08:08:53.623Z,8.80
2022-12-05T08:11:26.900Z,7.57
2022-12-05T08:13:54.460Z,9.83
2022-12-05T08:16:24.315Z,8.60
2022-12-05T08:18:55.940Z,9.33
2022-12-05T08:21:23.175Z,9.43
2022-12-05T08:23:50.111Z,10.70
2022-12-05T08:26:20.863Z,8.90
2022-12-05T08:28:53.848Z,8.87
2022-12-05T08:31:24.017Z,8.30
2022-12-05T08:33:57.147Z,8.77
2022-12-05T08:36:28.515Z,7.53
2022-12-05T08:39:00.380Z,8.67
2022-12-05T08:41:31.117Z,8.60
2022-12-05T08:44:03.013Z,8.50
2022-12-05T08:46:32.659Z,8.47
2022-12-05T08:48:59.544Z,7.40
2022-12-05T08:51:26.508Z,8.10
2022-12-05T08:53:56.441Z,9.03
2022-12-05T08:56:27.086Z,9.57
2022-12-05T08:59:01.269Z,9.00
2022-12-05T09:01:33.381Z,9.13
2022-12-05T09:04:01.161Z,8.90
2022-12-05T09:06:29.491Z,9.10
2022-12-05T09:09:02.697Z,8.87
2022-12-05T09:11:32.061Z,8.70
2022-12-05T09:13:59.637Z,8.17
2022-12-05T09:16:37.996Z,7.50
2022-12-05T09:19:11.752Z,8.33
2022-12-05T09:21:38.624Z,8.73
2022-12-05T09:24:05.648Z,9.07
2022-12-05T09:26:32.543Z,9.00
2022-12-05T09:28:59.547Z,8.07
2022-12-05T09:31:27.442Z,7.43
2022-12-05T09:33:54.590Z,7.93
2022-12-05T09:36:23.796Z,7.03
2022-12-05T09:38:51.858Z,7.70
2022-12-05T09:41:52.492Z,7.73
2022-12-05T09:44:43.520Z,8.67
2022-12-05T09:47:25.723Z,8.97
2022-12-05T09:50:04.665Z,8.40
2022-12-05T09:52:38.611Z,8.37
2022-12-05T09:55:15.459Z,7.67
2022-12-05T09:57:57.888Z,7.57
2022-12-05T10:00:28.594Z,7.53
2022-12-05T10:03:14.373Z,8.40
2022-12-05T10:05:51.367Z,7.90
2022-12-05T10:08:38.000Z,8.00
2022-12-05T10:11:31.915Z,8.63
2022-12-05T10:14:18.015Z,8.80
2022-12-05T10:16:55.431Z,9.50
2022-12-05T10:19:34.320Z,9.90
2022-12-05T10:22:20.212Z,10.50
2022-12-05T10:25:01.489Z,8.87
2022-12-05T10:27:39.999Z,7.40
2022-12-05T10:30:17.936Z,9.50
2022-12-05T10:32:51.119Z,10.50
2022-12-05T10:35:37.122Z,12.03
2022-12-05T10:38:07.512Z,9.43
2022-12-05T10:40:41.472Z,9.97
2022-12-05T10:43:13.204Z,10.27
2022-12-05T10:45:44.368Z,9.20
2022-12-05T10:48:13.693Z,8.13
2022-12-05T10:50:42.734Z,7.80
2022-12-05T10:53:16.208Z,6.70
2022-12-05T10:56:06.331Z,7.67
2022-12-05T10:58:33.671Z,7.20
2022-12-05T11:01:14.097Z,7.70
2022-12-05T11:03:43.404Z,6.47
2022-12-05T11:06:16.136Z,7.53
2022-12-05T11:09:06.613Z,7.20
2022-12-05T11:11:34.043Z,8.87
2022-12-05T11:14:21.507Z,8.17
2022-12-05T11:16:57.793Z,7.93
2022-12-05T11:19:32.533Z,7.17
2022-12-05T11:22:00.446Z,6.33
2022-12-05T11:24:37.717Z,6.63
2022-12-05T11:27:16.468Z,7.97
2022-12-05T11:29:45.541Z,6.83
2022-12-05T11:32:21.723Z,6.13
2022-12-05T11:35:07.707Z,7.17
2022-12-05T11:37:46.060Z,8.03
2022-12-05T11:40:28.415Z,8.90
2022-12-05T11:43:09.987Z,7.47
2022-12-05T11:45:47.090Z,11.70
2022-12-05T11:48:17.635Z,10.97
2022-12-05T11:51:08.298Z,11.80
2022-12-05T11:54:13.571Z,8.83
2022-12-05T11:56:53.383Z,7.07
2022-12-05T11:59:28.962Z,6.47
2022-12-05T12:02:27.287Z,6.73
2022-12-05T12:05:15.729Z,6.83
2022-12-05T12:08:09.708Z,6.40
2022-12-05T12:10:46.584Z,5.93
2022-12-05T12:13:35.597Z,7.23
2022-12-05T12:16:15.863Z,7.70
2022-12-05T12:19:05.452Z,7.20
2022-12-05T12:22:00.868Z,6.23
2022-12-05T12:24:58.059Z,6.30
2022-12-05T12:27:49.374Z,7.23
2022-12-05T12:30:27.802Z,8.67
2022-12-05T12:33:13.804Z,11.30
2022-12-05T12:35:43.788Z,7.20
2022-12-05T12:38:21.967Z,6.60
2022-12-05T12:40:54.707Z,7.03
2022-12-05T12:43:53.131Z,9.53
2022-12-05T12:46:45.896Z,6.27
2022-12-05T12:49:29.310Z,6.33
2022-12-05T12:52:12.369Z,6.33
2022-12-05T12:55:05.478Z,6.03
2022-12-05T12:57:59.944Z,6.00
2022-12-05T13:00:36.230Z,6.60
2022-12-05T13:03:12.471Z,6.70
2022-12-05T13:05:44.780Z,7.63
2022-12-05T13:08:14.175Z,7.30
2022-12-05T13:10:46.610Z,6.70
2022-12-05T13:13:38.950Z,6.93
2022-12-05T13:16:08.145Z,6.03
2022-12-05T13:18:35.738Z,6.30
2022-12-05T13:21:08.793Z,5.40
2022-12-05T13:23:45.650Z,6.27
2022-12-05T13:26:14.451Z,7.17
2022-12-05T13:28:54.557Z,7.00
2022-12-05T13:31:35.028Z,6.00
2022-12-05T13:34:01.975Z,6.57
2022-12-05T13:36:49.896Z,8.33
2022-12-05T13:39:41.461Z,6.70
2022-12-05T13:42:27.759Z,5.70
2022-12-05T13:44:58.979Z,6.67
2022-12-05T13:47:40.755Z,5.40
2022-12-05T13:50:10.090Z,5.30
2022-12-05T13:52:59.298Z,5.37
2022-12-05T13:55:35.342Z,5.20
2022-12-05T13:58:18.699Z,5.63
2022-12-05T14:00:46.152Z,5.23
2022-12-05T14:03:38.156Z,5.13
2022-12-05T14:06:07.111Z,4.70
2022-12-05T14:08:39.980Z,5.10
2022-12-05T14:11:10.312Z,5.10
2022-12-05T14:13:42.103Z,5.10
2022-12-05T14:16:24.107Z,5.10
2022-12-05T14:19:03.015Z,5.37
2022-12-05T14:21:46.376Z,5.43
2022-12-05T14:24:45.294Z,5.27
2022-12-05T14:27:42.739Z,6.00
2022-12-05T14:30:22.115Z,5.87
2022-12-05T14:32:50.886Z,5.03
2022-12-05T14:35:40.575Z,4.73
2022-12-05T14:38:18.923Z,4.60
2022-12-05T14:40:47.562Z,5.00
2022-12-05T14:43:32.813Z,4.43
2022-12-05T14:46:03.802Z,4.17
2022-12-05T14:48:36.712Z,4.20
2022-12-05T14:51:43.905Z,4.37
2022-12-05T14:54:15.974Z,4.53
2022-12-05T14:56:46.028Z,4.40
2022-12-05T14:59:34.181Z,4.50
2022-12-05T15:02:03.218Z,4.30
2022-12-05T15:04:52.789Z,3.70
2022-12-05T15:07:27.798Z,5.27
2022-12-05T15:10:20.563Z,3.40
2022-12-05T15:12:49.190Z,3.97
2022-12-05T15:15:36.407Z,3.93
2022-12-05T15:18:24.771Z,3.50
2022-12-05T15:21:13.988Z,3.43
2022-12-05T15:23:47.923Z,3.67
2022-12-05T15:26:46.779Z,4.33
2022-12-05T15:29:26.468Z,4.03
2022-12-05T15:31:54.245Z,5.07
2022-12-05T15:34:59.140Z,4.20
2022-12-05T15:37:50.565Z,4.27
2022-12-05T15:40:22.254Z,4.80
2022-12-05T15:42:51.165Z,4.60
2022-12-05T15:45:23.556Z,4.30
2022-12-05T15:48:07.116Z,3.87
2022-12-05T15:50:41.278Z,4.10
2022-12-05T15:53:19.651Z,3.70
2022-12-05T15:55:50.543Z,4.57
2022-12-05T15:58:22.403Z,3.60
2022-12-05T16:00:54.382Z,3.60
2022-12-05T16:03:37.553Z,4.27
2022-12-05T16:06:14.000Z,4.37
2022-12-05T16:08:47.979Z,4.00
2022-12-05T16:11:15.361Z,3.67
2022-12-05T16:13:49.628Z,3.80
2022-12-05T16:16:27.835Z,4.10
2022-12-05T16:18:57.431Z,3.87
2022-12-05T16:21:40.867Z,4.10
2022-12-05T16:24:21.542Z,4.10
2022-12-05T16:27:07.143Z,4.30
2022-12-05T16:29:35.628Z,4.00
2022-12-05T16:32:05.124Z,4.00
2022-12-05T16:34:33.901Z,3.90
2022-12-05T16:37:00.872Z,4.00
2022-12-05T16:39:28.971Z,4.20
2022-12-05T16:41:56.254Z,3.80
2022-12-05T16:44:47.473Z,3.47
2022-12-05T16:47:53.795Z,3.80
2022-12-05T16:50:25.592Z,3.90
2022-12-05T16:53:09.396Z,4.80
2022-12-05T16:55:41.654Z,5.03
2022-12-05T16:58:13.874Z,6.80
2022-12-05T17:00:40.647Z,7.87
2022-12-05T17:03:33.370Z,7.90
2022-12-05T17:05:59.294Z,8.13
2022-12-05T17:08:26.769Z,8.20
2022-12-05T17:10:53.787Z,8.53
2022-12-05T17:13:21.034Z,7.83
2022-12-05T17:15:48.121Z,7.73
2022-12-05T17:18:24.178Z,6.70
2022-12-05T17:20:55.280Z,6.00
2022-12-05T17:23:22.032Z,5.53
2022-12-05T17:25:54.400Z,4.97
2022-12-05T17:28:22.099Z,5.07
2022-12-05T17:30:49.717Z,6.13
2022-12-05T17:33:18.588Z,6.40
2022-12-05T17:35:45.652Z,6.10
2022-12-05T17:38:12.637Z,6.07
2022-12-05T17:40:40.418Z,5.83
2022-12-05T17:43:07.492Z,6.13
2022-12-05T17:45:34.438Z,5.83
2022-12-05T17:48:01.332Z,5.90
2022-12-05T17:50:29.346Z,5.10
2022-12-05T17:53:00.487Z,4.97
2022-12-05T17:55:29.911Z,4.90
2022-12-05T17:57:56.778Z,4.73
2022-12-05T18:00:24.664Z,4.77
2022-12-05T18:02:52.621Z,4.87
2022-12-05T18:05:19.810Z,4.70
2022-12-05T18:07:47.241Z,4.50
2022-12-05T18:10:20.214Z,4.53
2022-12-05T18:12:48.030Z,4.33
2022-12-05T18:15:15.472Z,5.60
2022-12-05T18:17:42.880Z,5.03
2022-12-05T18:20:12.833Z,5.10
2022-12-05T18:22:40.123Z,5.57
2022-12-05T18:25:07.541Z,6.30
2022-12-05T18:27:35.389Z,5.40
2022-12-05T18:30:04.912Z,5.47
2022-12-05T18:32:31.707Z,6.53
2022-12-05T18:34:59.029Z,5.87
2022-12-05T18:37:28.200Z,6.73
2022-12-05T18:39:56.370Z,6.40
2022-12-05T18:42:23.824Z,6.47
2022-12-05T18:44:50.709Z,14.67
2022-12-05T18:47:17.486Z,11.53
2022-12-05T18:49:44.374Z,10.50
2022-12-05T18:52:11.250Z,10.00
2022-12-05T18:54:38.079Z,10.03
2022-12-05T18:57:04.938Z,9.57
2022-12-05T18:59:31.807Z,7.90
2022-12-05T19:02:01.833Z,8.43
2022-12-05T19:04:29.450Z,10.07
2022-12-05T19:07:01.901Z,11.57
2022-12-05T19:09:31.258Z,12.30
2022-12-05T19:11:59.602Z,11.07
2022-12-05T19:14:29.537Z,9.63
2022-12-05T19:17:00.289Z,10.40
2022-12-05T19:19:28.053Z,10.60
2022-12-05T19:21:55.076Z,9.27
2022-12-05T19:24:24.060Z,9.20
2022-12-05T19:26:51.384Z,8.33
2022-12-05T19:29:18.633Z,11.30
2022-12-05T19:31:45.834Z,11.60
2022-12-05T19:34:13.007Z,10.33
2022-12-05T19:36:43.332Z,10.23
2022-12-05T19:39:15.838Z,9.83
2022-12-05T19:41:43.092Z,9.73
2022-12-05T19:44:10.375Z,8.60
2022-12-05T19:46:37.864Z,8.50
2022-12-05T19:49:07.113Z,11.33
2022-12-05T19:51:34.915Z,8.97
2022-12-05T19:54:03.584Z,8.17
2022-12-05T19:56:31.883Z,8.10
2022-12-05T19:58:59.769Z,9.70
2022-12-05T20:01:39.126Z,7.63
2022-12-05T20:04:08.932Z,7.97
2022-12-05T20:06:38.547Z,8.20
2022-12-05T20:09:06.869Z,9.97
2022-12-05T20:11:33.942Z,15.40
2022-12-05T20:14:02.016Z,13.10
2022-12-05T20:16:30.185Z,9.63
2022-12-05T20:18:59.396Z,12.10
2022-12-05T20:21:29.880Z,10.00
2022-12-05T20:23:58.910Z,13.13
2022-12-05T20:26:28.643Z,11.67
2022-12-05T20:29:00.448Z,11.37
2022-12-05T20:31:36.700Z,11.07
2022-12-05T20:34:04.993Z,11.10
2022-12-05T20:36:33.586Z,10.63
2022-12-05T20:39:03.761Z,17.43
2022-12-05T20:41:32.154Z,15.67
2022-12-05T20:44:02.571Z,15.43
2022-12-05T20:46:31.696Z,15.67
2022-12-05T20:48:59.122Z,14.60
2022-12-05T20:51:29.616Z,13.43
2022-12-05T20:53:58.177Z,13.53
2022-12-05T20:56:28.358Z,12.33
2022-12-05T20:58:57.927Z,11.53
2022-12-05T21:01:25.905Z,10.63
2022-12-05T21:03:54.080Z,10.57
2022-12-05T21:06:30.552Z,12.03
2022-12-05T21:09:00.021Z,12.13
2022-12-05T21:11:28.408Z,13.93
2022-12-05T21:13:56.797Z,12.60
2022-12-05T21:16:24.902Z,14.60
2022-12-05T21:18:52.949Z,14.63
2022-12-05T21:21:23.413Z,13.20
2022-12-05T21:23:59.871Z,12.93
2022-12-05T21:26:29.246Z,12.77
2022-12-05T21:28:56.929Z,14.00
2022-12-05T21:31:36.297Z,11.33
2022-12-05T21:34:06.610Z,13.30
2022-12-05T21:36:35.776Z,13.07
2022-12-05T21:39:03.423Z,12.17
2022-12-05T21:41:30.295Z,12.33
2022-12-05T21:43:57.612Z,10.03
2022-12-05T21:46:25.761Z,10.23
2022-12-05T21:48:53.276Z,10.20
2022-12-05T21:51:20.877Z,10.20
2022-12-05T21:53:48.250Z,9.20
2022-12-05T21:56:18.408Z,9.60
2022-12-05T21:58:46.711Z,8.63
2022-12-05T22:01:23.854Z,12.47
2022-12-05T22:03:59.468Z,9.60
2022-12-05T22:06:27.222Z,9.60
2022-12-05T22:08:56.249Z,10.10
2022-12-05T22:11:24.087Z,9.77
2022-12-05T22:13:51.933Z,10.20
2022-12-05T22:16:19.830Z,10.83
2022-12-05T22:18:47.274Z,10.73
2022-12-05T22:21:16.675Z,10.00
2022-12-05T22:23:43.881Z,10.83
2022-12-05T22:26:17.196Z,9.73
2022-12-05T22:28:44.901Z,8.57
2022-12-05T22:31:14.165Z,9.80
2022-12-05T22:33:41.551Z,9.77
2022-12-05T22:36:11.616Z,9.03
2022-12-05T22:38:40.677Z,9.37
2022-12-05T22:41:16.198Z,9.87
2022-12-05T22:43:44.960Z,8.60
2022-12-05T22:46:15.105Z,10.07
2022-12-05T22:48:42.070Z,9.47
2022-12-05T22:51:09.684Z,8.90
2022-12-05T22:53:38.550Z,9.40
2022-12-05T22:56:07.936Z,9.17
2022-12-05T22:58:41.605Z,9.83
2022-12-05T23:01:19.793Z,8.47
2022-12-05T23:03:49.124Z,7.90
2022-12-05T23:06:18.332Z,11.80
2022-12-05T23:08:50.074Z,12.17
2022-12-05T23:11:20.471Z,15.60
2022-12-05T23:13:48.741Z,13.70
2022-12-05T23:16:22.191Z,11.90
2022-12-05T23:18:54.633Z,10.53
2022-12-05T23:21:24.535Z,10.77
2022-12-05T23:23:54.069Z,10.67
2022-12-05T23:26:23.517Z,11.40
2022-12-05T23:28:50.643Z,11.63
2022-12-05T23:31:18.427Z,10.80
2022-12-05T23:33:49.495Z,10.63
2022-12-05T23:36:18.275Z,9.97
2022-12-05T23:38:45.193Z,10.03
2022-12-05T23:41:16.247Z,10.87
2022-12-05T23:43:43.679Z,9.80
2022-12-05T23:46:12.415Z,11.20
2022-12-05T23:48:40.120Z,10.27
2022-12-05T23:51:16.014Z,10.27
2022-12-05T23:53:44.599Z,10.33
2022-12-05T23:56:17.962Z,11.23
2022-12-05T23:58:45.764Z,10.37
